sensor_id;sensor_type;location;lat;lon;timestamp;pressure;altitude;pressure_sealevel;temperature;humidity
58239;BME280;44037;55.638;37.356;2022-08-19T00:01:20;99728.09;;;22.12;42.62
58239;BME280;44037;55.638;37.356;2022-08-19T00:03:47;99735.09;;;22.13;42.93
58239;BME280;44037;55.638;37.356;2022-08-19T00:06:15;99738.72;;;22.10;42.94
58239;BME280;44037;55.638;37.356;2022-08-19T00:08:42;99738.78;;;22.08;43.34
58239;BME280;44037;55.638;37.356;2022-08-19T00:11:10;99747.59;;;22.07;43.33
58239;BME280;44037;55.638;37.356;2022-08-19T00:13:38;99745.94;;;22.05;43.54
58239;BME280;44037;55.638;37.356;2022-08-19T00:16:05;99741.69;;;22.01;43.71
58239;BME280;44037;55.638;37.356;2022-08-19T00:18:34;99743.53;;;21.99;43.79
58239;BME280;44037;55.638;37.356;2022-08-19T00:21:01;99735.72;;;21.96;44.02
58239;BME280;44037;55.638;37.356;2022-08-19T00:23:33;99741.00;;;21.96;44.28
58239;BME280;44037;55.638;37.356;2022-08-19T00:26:02;99751.66;;;21.92;44.42
58239;BME280;44037;55.638;37.356;2022-08-19T00:28:29;99747.41;;;21.88;44.65
58239;BME280;44037;55.638;37.356;2022-08-19T00:30:56;99742.25;;;21.85;44.86
58239;BME280;44037;55.638;37.356;2022-08-19T00:33:23;99748.50;;;21.83;44.88
58239;BME280;44037;55.638;37.356;2022-08-19T00:35:52;99751.16;;;21.81;44.91
58239;BME280;44037;55.638;37.356;2022-08-19T00:38:19;99756.44;;;21.81;45.03
58239;BME280;44037;55.638;37.356;2022-08-19T00:40:48;99758.22;;;21.81;45.24
58239;BME280;44037;55.638;37.356;2022-08-19T00:43:19;99751.31;;;21.78;45.19
58239;BME280;44037;55.638;37.356;2022-08-19T00:45:46;99753.13;;;21.76;45.42
58239;BME280;44037;55.638;37.356;2022-08-19T00:48:14;99757.50;;;21.77;45.53
58239;BME280;44037;55.638;37.356;2022-08-19T00:50:42;99761.94;;;21.75;45.70
58239;BME280;44037;55.638;37.356;2022-08-19T00:53:12;99763.66;;;21.76;46.09
58239;BME280;44037;55.638;37.356;2022-08-19T00:55:44;99760.28;;;21.72;46.32
58239;BME280;44037;55.638;37.356;2022-08-19T00:58:16;99767.22;;;21.75;46.05
58239;BME280;44037;55.638;37.356;2022-08-19T01:00:44;99777.69;;;21.76;46.56
58239;BME280;44037;55.638;37.356;2022-08-19T01:03:18;99776.78;;;21.77;46.52
58239;BME280;44037;55.638;37.356;2022-08-19T01:05:47;99784.66;;;21.79;46.70
58239;BME280;44037;55.638;37.356;2022-08-19T01:08:18;99777.66;;;21.78;46.88
58239;BME280;44037;55.638;37.356;2022-08-19T01:10:47;99780.25;;;21.79;46.85
58239;BME280;44037;55.638;37.356;2022-08-19T01:13:16;99787.25;;;21.81;46.77
58239;BME280;44037;55.638;37.356;2022-08-19T01:15:46;99774.13;;;21.79;47.01
58239;BME280;44037;55.638;37.356;2022-08-19T01:18:16;99786.41;;;21.78;46.87
58239;BME280;44037;55.638;37.356;2022-08-19T01:20:45;99793.50;;;21.78;47.05
58239;BME280;44037;55.638;37.356;2022-08-19T01:23:15;99783.09;;;21.73;47.13
58239;BME280;44037;55.638;37.356;2022-08-19T01:25:45;99781.41;;;21.71;47.18
58239;BME280;44037;55.638;37.356;2022-08-19T01:28:18;99782.56;;;21.63;47.28
58239;BME280;44037;55.638;37.356;2022-08-19T01:30:45;99788.91;;;21.56;47.39
58239;BME280;44037;55.638;37.356;2022-08-19T01:33:13;99778.59;;;21.50;47.68
58239;BME280;44037;55.638;37.356;2022-08-19T01:35:41;99785.84;;;21.43;47.66
58239;BME280;44037;55.638;37.356;2022-08-19T01:38:10;99774.56;;;21.38;47.87
58239;BME280;44037;55.638;37.356;2022-08-19T01:40:39;99779.91;;;21.37;48.16
58239;BME280;44037;55.638;37.356;2022-08-19T01:43:07;99776.56;;;21.31;47.94
58239;BME280;44037;55.638;37.356;2022-08-19T01:45:35;99775.84;;;21.26;47.76
58239;BME280;44037;55.638;37.356;2022-08-19T01:48:03;99770.78;;;21.20;47.74
58239;BME280;44037;55.638;37.356;2022-08-19T01:50:31;99768.34;;;21.14;48.04
58239;BME280;44037;55.638;37.356;2022-08-19T01:52:59;99767.47;;;21.13;47.93
58239;BME280;44037;55.638;37.356;2022-08-19T01:55:27;99778.00;;;21.13;48.23
58239;BME280;44037;55.638;37.356;2022-08-19T01:57:58;99768.25;;;21.17;48.05
58239;BME280;44037;55.638;37.356;2022-08-19T02:00:28;99770.09;;;21.15;48.16
58239;BME280;44037;55.638;37.356;2022-08-19T02:02:56;99769.19;;;21.16;48.31
58239;BME280;44037;55.638;37.356;2022-08-19T02:05:23;99769.97;;;21.18;48.33
58239;BME280;44037;55.638;37.356;2022-08-19T02:07:50;99762.06;;;21.18;48.22
58239;BME280;44037;55.638;37.356;2022-08-19T02:10:20;99776.16;;;21.17;48.16
58239;BME280;44037;55.638;37.356;2022-08-19T02:12:48;99781.44;;;21.17;48.29
58239;BME280;44037;55.638;37.356;2022-08-19T02:15:19;99774.44;;;21.16;48.23
58239;BME280;44037;55.638;37.356;2022-08-19T02:17:47;99778.91;;;21.14;48.37
58239;BME280;44037;55.638;37.356;2022-08-19T02:20:15;99776.28;;;21.12;48.37
58239;BME280;44037;55.638;37.356;2022-08-19T02:22:42;99781.63;;;21.11;48.46
58239;BME280;44037;55.638;37.356;2022-08-19T02:25:10;99783.34;;;21.12;48.20
58239;BME280;44037;55.638;37.356;2022-08-19T02:27:38;99796.50;;;21.12;48.48
58239;BME280;44037;55.638;37.356;2022-08-19T02:30:08;99809.69;;;21.12;48.32
58239;BME280;44037;55.638;37.356;2022-08-19T02:32:37;99800.88;;;21.13;48.33
58239;BME280;44037;55.638;37.356;2022-08-19T02:35:05;99808.72;;;21.14;48.62
58239;BME280;44037;55.638;37.356;2022-08-19T02:37:32;99807.06;;;21.12;48.41
58239;BME280;44037;55.638;37.356;2022-08-19T02:40:17;99804.50;;;21.09;48.33
58239;BME280;44037;55.638;37.356;2022-08-19T02:42:44;99800.97;;;21.10;48.78
58239;BME280;44037;55.638;37.356;2022-08-19T02:45:12;99802.75;;;21.09;48.40
58239;BME280;44037;55.638;37.356;2022-08-19T02:47:40;99808.09;;;21.06;48.13
58239;BME280;44037;55.638;37.356;2022-08-19T02:50:08;99800.28;;;21.03;48.39
58239;BME280;44037;55.638;37.356;2022-08-19T02:52:35;99808.28;;;21.00;48.75
58239;BME280;44037;55.638;37.356;2022-08-19T02:55:03;99806.56;;;20.99;48.47
58239;BME280;44037;55.638;37.356;2022-08-19T02:57:30;99803.91;;;21.00;48.28
58239;BME280;44037;55.638;37.356;2022-08-19T02:59:58;99802.88;;;21.05;48.48
58239;BME280;44037;55.638;37.356;2022-08-19T03:02:26;99795.03;;;21.03;48.52
58239;BME280;44037;55.638;37.356;2022-08-19T03:04:55;99792.34;;;21.05;48.38
58239;BME280;44037;55.638;37.356;2022-08-19T03:07:22;99794.06;;;21.06;48.16
58239;BME280;44037;55.638;37.356;2022-08-19T03:09:49;99793.13;;;21.08;48.32
58239;BME280;44037;55.638;37.356;2022-08-19T03:12:16;99799.06;;;21.15;48.25
58239;BME280;44037;55.638;37.356;2022-08-19T03:14:43;99811.09;;;21.22;48.00
58239;BME280;44037;55.638;37.356;2022-08-19T03:17:11;99817.28;;;21.21;48.15
58239;BME280;44037;55.638;37.356;2022-08-19T03:19:38;99821.72;;;21.21;48.02
58239;BME280;44037;55.638;37.356;2022-08-19T03:22:06;99814.72;;;21.20;48.05
58239;BME280;44037;55.638;37.356;2022-08-19T03:24:33;99816.38;;;21.22;48.11
58239;BME280;44037;55.638;37.356;2022-08-19T03:27:00;99817.91;;;21.29;47.90
58239;BME280;44037;55.638;37.356;2022-08-19T03:29:31;99815.06;;;21.36;47.91
58239;BME280;44037;55.638;37.356;2022-08-19T03:32:00;99816.72;;;21.38;47.83
58239;BME280;44037;55.638;37.356;2022-08-19T03:34:30;99820.41;;;21.34;47.82
58239;BME280;44037;55.638;37.356;2022-08-19T03:37:01;99822.97;;;21.36;47.90
58239;BME280;44037;55.638;37.356;2022-08-19T03:39:30;99828.19;;;21.37;47.81
58239;BME280;44037;55.638;37.356;2022-08-19T03:41:57;99814.16;;;21.37;47.84
58239;BME280;44037;55.638;37.356;2022-08-19T03:44:29;99815.88;;;21.38;47.99
58239;BME280;44037;55.638;37.356;2022-08-19T03:46:59;99812.38;;;21.37;47.59
58239;BME280;44037;55.638;37.356;2022-08-19T03:49:28;99815.16;;;21.32;48.17
58239;BME280;44037;55.638;37.356;2022-08-19T03:51:57;99808.06;;;21.35;48.03
58239;BME280;44037;55.638;37.356;2022-08-19T03:54:26;99817.63;;;21.37;47.86
58239;BME280;44037;55.638;37.356;2022-08-19T03:56:56;99810.66;;;21.36;48.04
58239;BME280;44037;55.638;37.356;2022-08-19T03:59:25;99820.94;;;21.44;48.01
58239;BME280;44037;55.638;37.356;2022-08-19T04:01:53;99815.25;;;21.56;47.86
58239;BME280;44037;55.638;37.356;2022-08-19T04:04:20;99815.09;;;21.62;47.44
58239;BME280;44037;55.638;37.356;2022-08-19T04:06:48;99817.50;;;21.69;47.36
58239;BME280;44037;55.638;37.356;2022-08-19T04:09:15;99820.81;;;21.75;47.37
58239;BME280;44037;55.638;37.356;2022-08-19T04:11:47;99816.19;;;21.82;46.90
58239;BME280;44037;55.638;37.356;2022-08-19T04:14:20;99814.16;;;21.90;47.12
58239;BME280;44037;55.638;37.356;2022-08-19T04:16:47;99815.53;;;22.01;46.94
58239;BME280;44037;55.638;37.356;2022-08-19T04:19:16;99819.47;;;22.14;46.63
58239;BME280;44037;55.638;37.356;2022-08-19T04:21:44;99823.69;;;22.18;46.55
58239;BME280;44037;55.638;37.356;2022-08-19T04:24:12;99818.97;;;22.28;46.27
58239;BME280;44037;55.638;37.356;2022-08-19T04:26:40;99815.13;;;22.37;46.31
58239;BME280;44037;55.638;37.356;2022-08-19T04:29:11;99823.47;;;22.50;45.82
58239;BME280;44037;55.638;37.356;2022-08-19T04:31:42;99816.13;;;22.58;45.99
58239;BME280;44037;55.638;37.356;2022-08-19T04:34:12;99824.69;;;22.65;45.80
58239;BME280;44037;55.638;37.356;2022-08-19T04:36:41;99830.06;;;22.62;45.49
58239;BME280;44037;55.638;37.356;2022-08-19T04:39:14;99823.25;;;22.56;46.31
58239;BME280;44037;55.638;37.356;2022-08-19T04:41:41;99831.00;;;22.61;46.05
58239;BME280;44037;55.638;37.356;2022-08-19T04:44:26;99829.91;;;22.66;46.01
58239;BME280;44037;55.638;37.356;2022-08-19T04:46:57;99827.78;;;22.76;45.81
58239;BME280;44037;55.638;37.356;2022-08-19T04:49:25;99827.38;;;22.87;46.06
58239;BME280;44037;55.638;37.356;2022-08-19T04:51:53;99828.84;;;22.94;45.80
58239;BME280;44037;55.638;37.356;2022-08-19T04:54:22;99826.00;;;22.99;45.36
58239;BME280;44037;55.638;37.356;2022-08-19T04:56:51;99824.41;;;23.17;45.31
58239;BME280;44037;55.638;37.356;2022-08-19T04:59:18;99835.94;;;23.38;44.91
58239;BME280;44037;55.638;37.356;2022-08-19T05:01:46;99836.88;;;23.58;44.63
58239;BME280;44037;55.638;37.356;2022-08-19T05:04:19;99833.56;;;23.75;44.51
58239;BME280;44037;55.638;37.356;2022-08-19T05:06:47;99836.44;;;23.89;44.15
58239;BME280;44037;55.638;37.356;2022-08-19T05:09:15;99837.25;;;23.91;43.64
58239;BME280;44037;55.638;37.356;2022-08-19T05:11:43;99837.88;;;23.98;43.70
58239;BME280;44037;55.638;37.356;2022-08-19T05:14:11;99838.66;;;24.00;43.37
58239;BME280;44037;55.638;37.356;2022-08-19T05:16:39;99835.28;;;23.97;43.42
58239;BME280;44037;55.638;37.356;2022-08-19T05:19:07;99837.88;;;23.98;43.51
58239;BME280;44037;55.638;37.356;2022-08-19T05:21:53;99836.03;;;24.00;43.65
58239;BME280;44037;55.638;37.356;2022-08-19T05:24:37;99828.09;;;24.00;43.48
58239;BME280;44037;55.638;37.356;2022-08-19T05:27:05;99839.34;;;24.05;43.34
58239;BME280;44037;55.638;37.356;2022-08-19T05:29:33;99834.34;;;24.18;43.39
58239;BME280;44037;55.638;37.356;2022-08-19T05:32:02;99834.94;;;24.25;43.22
58239;BME280;44037;55.638;37.356;2022-08-19T05:34:31;99833.66;;;24.34;43.28
58239;BME280;44037;55.638;37.356;2022-08-19T05:37:02;99825.38;;;24.42;43.04
58239;BME280;44037;55.638;37.356;2022-08-19T05:39:31;99832.66;;;24.36;43.00
58239;BME280;44037;55.638;37.356;2022-08-19T05:42:01;99826.88;;;24.28;43.26
58239;BME280;44037;55.638;37.356;2022-08-19T05:44:30;99832.88;;;24.32;43.54
58239;BME280;44037;55.638;37.356;2022-08-19T05:46:58;99838.66;;;24.40;43.26
58239;BME280;44037;55.638;37.356;2022-08-19T05:49:26;99831.97;;;24.52;43.01
58239;BME280;44037;55.638;37.356;2022-08-19T05:51:54;99830.53;;;24.64;42.59
58239;BME280;44037;55.638;37.356;2022-08-19T05:54:23;99841.19;;;24.62;42.50
58239;BME280;44037;55.638;37.356;2022-08-19T05:56:51;99841.69;;;24.51;42.61
58239;BME280;44037;55.638;37.356;2022-08-19T05:59:19;99831.25;;;24.48;43.11
58239;BME280;44037;55.638;37.356;2022-08-19T06:01:48;99825.75;;;24.53;42.87
58239;BME280;44037;55.638;37.356;2022-08-19T06:04:18;99824.38;;;24.63;42.91
58239;BME280;44037;55.638;37.356;2022-08-19T06:06:46;99825.78;;;24.72;42.48
58239;BME280;44037;55.638;37.356;2022-08-19T06:09:14;99828.44;;;24.72;42.45
58239;BME280;44037;55.638;37.356;2022-08-19T06:11:45;99828.50;;;24.71;42.61
58239;BME280;44037;55.638;37.356;2022-08-19T06:14:18;99835.00;;;24.82;42.67
58239;BME280;44037;55.638;37.356;2022-08-19T06:16:46;99834.22;;;24.99;42.33
58239;BME280;44037;55.638;37.356;2022-08-19T06:19:15;99833.16;;;25.21;41.90
58239;BME280;44037;55.638;37.356;2022-08-19T06:21:44;99833.59;;;25.31;41.46
58239;BME280;44037;55.638;37.356;2022-08-19T06:24:15;99834.97;;;25.21;41.51
58239;BME280;44037;55.638;37.356;2022-08-19T06:26:47;99834.81;;;25.24;41.63
58239;BME280;44037;55.638;37.356;2022-08-19T06:29:16;99832.41;;;25.37;41.46
58239;BME280;44037;55.638;37.356;2022-08-19T06:31:45;99847.84;;;25.48;41.06
58239;BME280;44037;55.638;37.356;2022-08-19T06:34:12;99840.91;;;25.45;41.11
58239;BME280;44037;55.638;37.356;2022-08-19T06:36:42;99832.41;;;25.37;40.89
58239;BME280;44037;55.638;37.356;2022-08-19T06:39:13;99833.09;;;25.23;41.27
58239;BME280;44037;55.638;37.356;2022-08-19T06:41:45;99846.59;;;25.18;41.21
58239;BME280;44037;55.638;37.356;2022-08-19T06:44:13;99842.22;;;25.17;41.62
58239;BME280;44037;55.638;37.356;2022-08-19T06:46:41;99845.16;;;25.11;41.75
58239;BME280;44037;55.638;37.356;2022-08-19T06:49:08;99838.13;;;25.10;41.89
58239;BME280;44037;55.638;37.356;2022-08-19T06:51:40;99847.81;;;25.11;41.97
58239;BME280;44037;55.638;37.356;2022-08-19T06:54:07;99847.31;;;25.03;42.13
58239;BME280;44037;55.638;37.356;2022-08-19T06:56:34;99840.03;;;24.89;42.32
58239;BME280;44037;55.638;37.356;2022-08-19T06:59:06;99839.94;;;24.90;42.31
58239;BME280;44037;55.638;37.356;2022-08-19T07:01:36;99841.22;;;25.00;42.20
58239;BME280;44037;55.638;37.356;2022-08-19T07:04:05;99848.59;;;25.13;42.10
58239;BME280;44037;55.638;37.356;2022-08-19T07:06:32;99850.66;;;25.25;41.63
58239;BME280;44037;55.638;37.356;2022-08-19T07:08:59;99848.31;;;25.19;41.73
58239;BME280;44037;55.638;37.356;2022-08-19T07:11:27;99838.69;;;25.17;41.83
58239;BME280;44037;55.638;37.356;2022-08-19T07:13:54;99848.78;;;25.27;41.77
58239;BME280;44037;55.638;37.356;2022-08-19T07:16:23;99839.44;;;25.38;41.79
58239;BME280;44037;55.638;37.356;2022-08-19T07:18:50;99835.97;;;25.55;40.90
58239;BME280;44037;55.638;37.356;2022-08-19T07:21:19;99838.88;;;25.68;40.84
58239;BME280;44037;55.638;37.356;2022-08-19T07:23:47;99841.03;;;25.59;40.64
58239;BME280;44037;55.638;37.356;2022-08-19T07:26:18;99840.19;;;25.59;40.61
58239;BME280;44037;55.638;37.356;2022-08-19T07:28:46;99850.34;;;25.68;40.44
58239;BME280;44037;55.638;37.356;2022-08-19T07:31:16;99848.78;;;25.82;40.16
58239;BME280;44037;55.638;37.356;2022-08-19T07:33:45;99854.94;;;26.00;40.00
58239;BME280;44037;55.638;37.356;2022-08-19T07:36:15;99848.19;;;26.12;39.26
58239;BME280;44037;55.638;37.356;2022-08-19T07:38:45;99844.94;;;26.22;39.39
58239;BME280;44037;55.638;37.356;2022-08-19T07:41:14;99847.44;;;26.26;38.87
58239;BME280;44037;55.638;37.356;2022-08-19T07:43:41;99845.16;;;26.35;39.04
58239;BME280;44037;55.638;37.356;2022-08-19T07:46:12;99845.06;;;26.37;39.02
58239;BME280;44037;55.638;37.356;2022-08-19T07:48:40;99849.44;;;26.38;39.28
58239;BME280;44037;55.638;37.356;2022-08-19T07:51:10;99840.75;;;26.52;38.82
58239;BME280;44037;55.638;37.356;2022-08-19T07:53:37;99851.38;;;26.52;38.67
58239;BME280;44037;55.638;37.356;2022-08-19T07:56:05;99846.06;;;26.52;39.36
58239;BME280;44037;55.638;37.356;2022-08-19T07:58:36;99840.13;;;26.63;38.65
58239;BME280;44037;55.638;37.356;2022-08-19T08:01:05;99841.84;;;26.81;38.25
58239;BME280;44037;55.638;37.356;2022-08-19T08:03:33;99857.78;;;26.97;37.24
58239;BME280;44037;55.638;37.356;2022-08-19T08:06:19;99837.72;;;26.92;35.81
58239;BME280;44037;55.638;37.356;2022-08-19T08:09:04;99851.03;;;26.74;37.16
58239;BME280;44037;55.638;37.356;2022-08-19T08:11:38;99839.69;;;26.88;36.44
58239;BME280;44037;55.638;37.356;2022-08-19T08:14:05;99837.59;;;27.09;36.05
58239;BME280;44037;55.638;37.356;2022-08-19T08:16:34;99866.75;;;27.27;34.87
58239;BME280;44037;55.638;37.356;2022-08-19T08:19:04;99847.16;;;27.44;35.05
58239;BME280;44037;55.638;37.356;2022-08-19T08:21:34;99833.56;;;27.34;34.75
58239;BME280;44037;55.638;37.356;2022-08-19T08:24:01;99846.50;;;27.40;34.46
58239;BME280;44037;55.638;37.356;2022-08-19T08:26:28;99858.38;;;27.65;34.60
58239;BME280;44037;55.638;37.356;2022-08-19T08:28:55;99861.28;;;27.77;34.57
58239;BME280;44037;55.638;37.356;2022-08-19T08:31:22;99860.53;;;27.89;34.70
58239;BME280;44037;55.638;37.356;2022-08-19T08:33:49;99854.66;;;27.98;33.93
58239;BME280;44037;55.638;37.356;2022-08-19T08:36:17;99875.56;;;27.59;34.43
58239;BME280;44037;55.638;37.356;2022-08-19T08:38:45;99856.34;;;27.38;35.18
58239;BME280;44037;55.638;37.356;2022-08-19T08:41:18;99870.88;;;27.49;35.03
58239;BME280;44037;55.638;37.356;2022-08-19T08:43:51;99842.19;;;27.54;34.85
58239;BME280;44037;55.638;37.356;2022-08-19T08:46:22;99847.91;;;27.62;35.18
58239;BME280;44037;55.638;37.356;2022-08-19T08:48:54;99856.19;;;27.41;35.15
58239;BME280;44037;55.638;37.356;2022-08-19T08:51:25;99863.41;;;27.23;34.94
58239;BME280;44037;55.638;37.356;2022-08-19T08:53:55;99879.38;;;27.23;35.65
58239;BME280;44037;55.638;37.356;2022-08-19T08:56:22;99871.22;;;27.26;35.47
58239;BME280;44037;55.638;37.356;2022-08-19T08:58:56;99839.63;;;27.36;35.58
58239;BME280;44037;55.638;37.356;2022-08-19T09:01:25;99863.66;;;27.35;35.85
58239;BME280;44037;55.638;37.356;2022-08-19T09:03:53;99870.88;;;27.17;36.11
